sensor_id;sensor_type;location;lat;lon;timestamp;temperature;humidity
9849;DHT22;4963;51.444;6.528;2022-12-18T00:02:03;-3.40;99.90
9849;DHT22;4963;51.444;6.528;2022-12-18T00:04:30;-3.40;99.90
9849;DHT22;4963;51.444;6.528;2022-12-18T00:06:58;-3.40;99.90
9849;DHT22;4963;51.444;6.528;2022-12-18T00:09:25;-3.50;99.90
9849;DHT22;4963;51.444;6.528;2022-12-18T00:11:54;-3.40;99.90
9849;DHT22;4963;51.444;6.528;2022-12-18T00:14:21;-3.40;99.90
9849;DHT22;4963;51.444;6.528;2022-12-18T00:16:51;-3.40;99.90
9849;DHT22;4963;51.444;6.528;2022-12-18T00:19:18;-3.40;99.90
9849;DHT22;4963;51.444;6.528;2022-12-18T00:21:45;-3.50;99.90
9849;DHT22;4963;51.444;6.528;2022-12-18T00:24:13;-3.50;99.90
9849;DHT22;4963;51.444;6.528;2022-12-18T00:26:40;-3.50;99.90
9849;DHT22;4963;51.444;6.528;2022-12-18T00:29:09;-3.50;99.90
9849;DHT22;4963;51.444;6.528;2022-12-18T00:31:38;-3.50;99.90
9849;DHT22;4963;51.444;6.528;2022-12-18T00:34:04;-3.50;99.90
9849;DHT22;4963;51.444;6.528;2022-12-18T00:36:33;-3.60;99.90
9849;DHT22;4963;51.444;6.528;2022-12-18T00:39:02;-3.60;99.90
9849;DHT22;4963;51.444;6.528;2022-12-18T00:41:31;-3.70;99.90
9849;DHT22;4963;51.444;6.528;2022-12-18T00:44:17;-3.70;99.90
9849;DHT22;4963;51.444;6.528;2022-12-18T00:46:44;-3.60;99.90
9849;DHT22;4963;51.444;6.528;2022-12-18T00:49:11;-3.60;99.90
9849;DHT22;4963;51.444;6.528;2022-12-18T00:51:38;-3.60;99.90
9849;DHT22;4963;51.444;6.528;2022-12-18T00:54:05;-3.60;99.90
9849;DHT22;4963;51.444;6.528;2022-12-18T00:56:35;-3.60;99.90
9849;DHT22;4963;51.444;6.528;2022-12-18T00:59:02;-3.60;99.90
9849;DHT22;4963;51.444;6.528;2022-12-18T01:01:28;-3.60;99.90
9849;DHT22;4963;51.444;6.528;2022-12-18T01:03:55;-3.60;99.90
9849;DHT22;4963;51.444;6.528;2022-12-18T01:06:22;-3.60;99.90
9849;DHT22;4963;51.444;6.528;2022-12-18T01:08:49;-3.50;99.90
9849;DHT22;4963;51.444;6.528;2022-12-18T01:11:17;-3.50;99.90
9849;DHT22;4963;51.444;6.528;2022-12-18T01:13:46;-3.50;99.90
9849;DHT22;4963;51.444;6.528;2022-12-18T01:16:13;-3.60;99.90
9849;DHT22;4963;51.444;6.528;2022-12-18T01:18:40;-3.60;99.90
9849;DHT22;4963;51.444;6.528;2022-12-18T01:21:08;-3.60;99.90
9849;DHT22;4963;51.444;6.528;2022-12-18T01:23:35;-3.60;99.90
9849;DHT22;4963;51.444;6.528;2022-12-18T01:26:06;-3.60;99.90
9849;DHT22;4963;51.444;6.528;2022-12-18T01:28:33;-3.60;99.90
9849;DHT22;4963;51.444;6.528;2022-12-18T01:31:14;-3.60;99.90
9849;DHT22;4963;51.444;6.528;2022-12-18T01:33:42;-3.60;99.90
9849;DHT22;4963;51.444;6.528;2022-12-18T01:36:15;-3.70;99.90
9849;DHT22;4963;51.444;6.528;2022-12-18T01:38:42;-3.70;99.90
9849;DHT22;4963;51.444;6.528;2022-12-18T01:41:09;-3.80;99.90
9849;DHT22;4963;51.444;6.528;2022-12-18T01:43:48;-3.80;99.90
9849;DHT22;4963;51.444;6.528;2022-12-18T01:46:17;-3.80;99.90
9849;DHT22;4963;51.444;6.528;2022-12-18T01:48:45;-3.70;99.90
9849;DHT22;4963;51.444;6.528;2022-12-18T01:51:13;-3.80;99.90
9849;DHT22;4963;51.444;6.528;2022-12-18T01:53:41;-3.80;99.90
9849;DHT22;4963;51.444;6.528;2022-12-18T01:56:11;-3.70;99.90
9849;DHT22;4963;51.444;6.528;2022-12-18T01:58:44;-3.70;99.90
9849;DHT22;4963;51.444;6.528;2022-12-18T02:01:12;-3.70;99.90
9849;DHT22;4963;51.444;6.528;2022-12-18T02:03:43;-3.70;99.90
9849;DHT22;4963;51.444;6.528;2022-12-18T02:06:14;-3.60;99.90
9849;DHT22;4963;51.444;6.528;2022-12-18T02:08:48;-3.60;99.90
9849;DHT22;4963;51.444;6.528;2022-12-18T02:11:22;-3.60;99.90
9849;DHT22;4963;51.444;6.528;2022-12-18T02:13:55;-3.60;99.90
9849;DHT22;4963;51.444;6.528;2022-12-18T02:16:27;-3.60;99.90
9849;DHT22;4963;51.444;6.528;2022-12-18T02:18:59;-3.70;99.90
9849;DHT22;4963;51.444;6.528;2022-12-18T02:21:34;-3.70;99.90
9849;DHT22;4963;51.444;6.528;2022-12-18T02:24:15;-3.70;99.90
9849;DHT22;4963;51.444;6.528;2022-12-18T02:26:46;-3.70;99.90
9849;DHT22;4963;51.444;6.528;2022-12-18T02:29:16;-3.70;99.90
9849;DHT22;4963;51.444;6.528;2022-12-18T02:31:48;-3.70;99.90
9849;DHT22;4963;51.444;6.528;2022-12-18T02:34:17;-3.70;99.90
9849;DHT22;4963;51.444;6.528;2022-12-18T02:36:46;-3.70;99.90
9849;DHT22;4963;51.444;6.528;2022-12-18T02:39:15;-3.70;99.90
9849;DHT22;4963;51.444;6.528;2022-12-18T02:41:44;-3.60;99.90
9849;DHT22;4963;51.444;6.528;2022-12-18T02:44:13;-3.70;99.90
9849;DHT22;4963;51.444;6.528;2022-12-18T02:46:42;-3.70;99.90
9849;DHT22;4963;51.444;6.528;2022-12-18T02:49:21;-3.60;99.90
9849;DHT22;4963;51.444;6.528;2022-12-18T02:51:53;-3.60;99.90
9849;DHT22;4963;51.444;6.528;2022-12-18T02:54:31;-3.50;99.90
9849;DHT22;4963;51.444;6.528;2022-12-18T02:57:09;-3.50;99.90
9849;DHT22;4963;51.444;6.528;2022-12-18T02:59:44;-3.50;99.90
9849;DHT22;4963;51.444;6.528;2022-12-18T03:02:20;-3.50;99.90
9849;DHT22;4963;51.444;6.528;2022-12-18T03:04:53;-3.50;99.90
9849;DHT22;4963;51.444;6.528;2022-12-18T03:07:27;-3.50;99.90
9849;DHT22;4963;51.444;6.528;2022-12-18T03:09:58;-3.60;99.90
9849;DHT22;4963;51.444;6.528;2022-12-18T03:12:30;-3.50;99.90
9849;DHT22;4963;51.444;6.528;2022-12-18T03:15:02;-3.60;99.90
9849;DHT22;4963;51.444;6.528;2022-12-18T03:17:31;-3.60;99.90
9849;DHT22;4963;51.444;6.528;2022-12-18T03:20:04;-3.60;99.90
9849;DHT22;4963;51.444;6.528;2022-12-18T03:22:33;-3.50;99.90
9849;DHT22;4963;51.444;6.528;2022-12-18T03:25:05;-3.60;99.90
9849;DHT22;4963;51.444;6.528;2022-12-18T03:27:35;-3.60;99.90
9849;DHT22;4963;51.444;6.528;2022-12-18T03:30:08;-3.40;99.90
9849;DHT22;4963;51.444;6.528;2022-12-18T03:32:39;-3.70;99.90
9849;DHT22;4963;51.444;6.528;2022-12-18T03:35:10;-3.70;99.90
9849;DHT22;4963;51.444;6.528;2022-12-18T03:37:38;-3.60;99.90
9849;DHT22;4963;51.444;6.528;2022-12-18T03:40:06;-3.60;99.90
9849;DHT22;4963;51.444;6.528;2022-12-18T03:42:39;-3.60;99.90
9849;DHT22;4963;51.444;6.528;2022-12-18T03:45:13;-3.60;99.90
9849;DHT22;4963;51.444;6.528;2022-12-18T03:47:55;-3.60;99.90
9849;DHT22;4963;51.444;6.528;2022-12-18T03:50:32;-3.60;99.90
9849;DHT22;4963;51.444;6.528;2022-12-18T03:53:09;-3.60;99.90
9849;DHT22;4963;51.444;6.528;2022-12-18T03:55:40;-3.60;99.90
9849;DHT22;4963;51.444;6.528;2022-12-18T03:58:10;-3.50;99.90
9849;DHT22;4963;51.444;6.528;2022-12-18T04:00:41;-3.50;99.90
9849;DHT22;4963;51.444;6.528;2022-12-18T04:03:09;-3.50;99.90
9849;DHT22;4963;51.444;6.528;2022-12-18T04:05:37;-3.50;99.90
9849;DHT22;4963;51.444;6.528;2022-12-18T04:08:05;-3.50;99.90
9849;DHT22;4963;51.444;6.528;2022-12-18T04:10:32;-3.50;99.90
9849;DHT22;4963;51.444;6.528;2022-12-18T04:12:59;-3.50;99.90
9849;DHT22;4963;51.444;6.528;2022-12-18T04:15:27;-3.50;99.90
9849;DHT22;4963;51.444;6.528;2022-12-18T04:17:54;-3.50;99.90
9849;DHT22;4963;51.444;6.528;2022-12-18T04:20:21;-3.50;99.90
9849;DHT22;4963;51.444;6.528;2022-12-18T04:22:47;-3.50;99.90
9849;DHT22;4963;51.444;6.528;2022-12-18T04:25:14;-3.50;99.90
9849;DHT22;4963;51.444;6.528;2022-12-18T04:27:41;-3.60;99.90
9849;DHT22;4963;51.444;6.528;2022-12-18T04:30:08;-3.50;99.90
9849;DHT22;4963;51.444;6.528;2022-12-18T04:32:37;-3.50;99.90
9849;DHT22;4963;51.444;6.528;2022-12-18T04:35:04;-3.50;99.90
9849;DHT22;4963;51.444;6.528;2022-12-18T04:37:33;-3.50;99.90
9849;DHT22;4963;51.444;6.528;2022-12-18T04:40:00;-3.50;99.90
9849;DHT22;4963;51.444;6.528;2022-12-18T04:42:27;-3.50;99.90
9849;DHT22;4963;51.444;6.528;2022-12-18T04:44:54;-3.50;99.90
9849;DHT22;4963;51.444;6.528;2022-12-18T04:47:20;-3.50;99.90
9849;DHT22;4963;51.444;6.528;2022-12-18T04:49:49;-3.50;99.90
9849;DHT22;4963;51.444;6.528;2022-12-18T04:52:15;-3.50;99.90
9849;DHT22;4963;51.444;6.528;2022-12-18T04:54:42;-3.50;99.90
9849;DHT22;4963;51.444;6.528;2022-12-18T04:57:09;-3.50;99.90
9849;DHT22;4963;51.444;6.528;2022-12-18T04:59:36;-3.40;99.90
9849;DHT22;4963;51.444;6.528;2022-12-18T05:02:03;-3.40;99.90
9849;DHT22;4963;51.444;6.528;2022-12-18T05:04:30;-3.40;99.90
9849;DHT22;4963;51.444;6.528;2022-12-18T05:06:58;-3.40;99.90
9849;DHT22;4963;51.444;6.528;2022-12-18T05:09:25;-3.40;99.90
9849;DHT22;4963;51.444;6.528;2022-12-18T05:11:51;-3.30;99.90
9849;DHT22;4963;51.444;6.528;2022-12-18T05:14:19;-3.40;99.90
9849;DHT22;4963;51.444;6.528;2022-12-18T05:16:46;-3.40;99.90
9849;DHT22;4963;51.444;6.528;2022-12-18T05:19:12;-3.40;99.90
9849;DHT22;4963;51.444;6.528;2022-12-18T05:21:39;-3.40;99.90
9849;DHT22;4963;51.444;6.528;2022-12-18T05:24:07;-3.40;99.90
9849;DHT22;4963;51.444;6.528;2022-12-18T05:26:34;-3.40;99.90
9849;DHT22;4963;51.444;6.528;2022-12-18T05:29:01;-3.40;99.90
9849;DHT22;4963;51.444;6.528;2022-12-18T05:31:28;-3.30;99.90
9849;DHT22;4963;51.444;6.528;2022-12-18T05:33:55;-3.30;99.90
9849;DHT22;4963;51.444;6.528;2022-12-18T05:36:21;-3.40;99.90
9849;DHT22;4963;51.444;6.528;2022-12-18T05:38:48;-3.40;99.90
9849;DHT22;4963;51.444;6.528;2022-12-18T05:41:16;-3.40;99.90
9849;DHT22;4963;51.444;6.528;2022-12-18T05:43:43;-3.40;99.90
9849;DHT22;4963;51.444;6.528;2022-12-18T05:46:14;-3.30;99.90
9849;DHT22;4963;51.444;6.528;2022-12-18T05:48:41;-3.40;99.90
9849;DHT22;4963;51.444;6.528;2022-12-18T05:51:10;-3.40;99.90
9849;DHT22;4963;51.444;6.528;2022-12-18T05:53:37;-3.40;99.90
9849;DHT22;4963;51.444;6.528;2022-12-18T05:56:06;-3.40;99.90
9849;DHT22;4963;51.444;6.528;2022-12-18T05:58:35;-3.50;99.90
9849;DHT22;4963;51.444;6.528;2022-12-18T06:01:07;-3.40;99.90
9849;DHT22;4963;51.444;6.528;2022-12-18T06:03:34;-3.40;99.90
9849;DHT22;4963;51.444;6.528;2022-12-18T06:06:01;-3.40;99.90
9849;DHT22;4963;51.444;6.528;2022-12-18T06:08:28;-3.40;99.90
9849;DHT22;4963;51.444;6.528;2022-12-18T06:10:55;-3.50;99.90
9849;DHT22;4963;51.444;6.528;2022-12-18T06:13:22;-3.50;99.90
9849;DHT22;4963;51.444;6.528;2022-12-18T06:15:50;-3.40;99.90
9849;DHT22;4963;51.444;6.528;2022-12-18T06:18:17;-3.40;99.90
9849;DHT22;4963;51.444;6.528;2022-12-18T06:20:44;-3.40;99.90
9849;DHT22;4963;51.444;6.528;2022-12-18T06:23:11;-3.40;99.90
9849;DHT22;4963;51.444;6.528;2022-12-18T06:25:39;-3.40;99.90
9849;DHT22;4963;51.444;6.528;2022-12-18T06:28:06;-3.40;99.90
9849;DHT22;4963;51.444;6.528;2022-12-18T06:30:33;-3.40;99.90
9849;DHT22;4963;51.444;6.528;2022-12-18T06:33:01;-3.40;99.90
9849;DHT22;4963;51.444;6.528;2022-12-18T06:35:28;-3.40;99.90
9849;DHT22;4963;51.444;6.528;2022-12-18T06:37:55;-3.40;99.90
9849;DHT22;4963;51.444;6.528;2022-12-18T06:40:21;-3.40;99.90
9849;DHT22;4963;51.444;6.528;2022-12-18T06:42:48;-3.40;99.90
9849;DHT22;4963;51.444;6.528;2022-12-18T06:45:15;-3.50;99.90
9849;DHT22;4963;51.444;6.528;2022-12-18T06:47:42;-3.50;99.90
9849;DHT22;4963;51.444;6.528;2022-12-18T06:50:11;-3.40;99.90
9849;DHT22;4963;51.444;6.528;2022-12-18T06:52:38;-3.50;99.90
9849;DHT22;4963;51.444;6.528;2022-12-18T06:55:06;-3.50;99.90
9849;DHT22;4963;51.444;6.528;2022-12-18T06:57:34;-3.50;99.90
9849;DHT22;4963;51.444;6.528;2022-12-18T07:00:00;-3.50;99.90
9849;DHT22;4963;51.444;6.528;2022-12-18T07:02:28;-3.50;99.90
9849;DHT22;4963;51.444;6.528;2022-12-18T07:04:55;-3.40;99.90
9849;DHT22;4963;51.444;6.528;2022-12-18T07:07:23;-3.40;99.90
9849;DHT22;4963;51.444;6.528;2022-12-18T07:09:50;-3.40;99.90
9849;DHT22;4963;51.444;6.528;2022-12-18T07:12:17;-3.40;99.90
9849;DHT22;4963;51.444;6.528;2022-12-18T07:14:44;-3.40;99.90
9849;DHT22;4963;51.444;6.528;2022-12-18T07:17:11;-3.50;99.90
9849;DHT22;4963;51.444;6.528;2022-12-18T07:19:37;-3.50;99.90
9849;DHT22;4963;51.444;6.528;2022-12-18T07:22:04;-3.50;99.90
9849;DHT22;4963;51.444;6.528;2022-12-18T07:24:33;-3.40;99.90
9849;DHT22;4963;51.444;6.528;2022-12-18T07:27:00;-3.50;99.90
9849;DHT22;4963;51.444;6.528;2022-12-18T07:29:27;-3.40;99.90
9849;DHT22;4963;51.444;6.528;2022-12-18T07:31:54;-3.40;99.90
9849;DHT22;4963;51.444;6.528;2022-12-18T07:34:21;-3.40;99.90
9849;DHT22;4963;51.444;6.528;2022-12-18T07:36:47;-3.40;99.90
9849;DHT22;4963;51.444;6.528;2022-12-18T07:39:14;-3.40;99.90
9849;DHT22;4963;51.444;6.528;2022-12-18T07:41:42;-3.30;99.90
9849;DHT22;4963;51.444;6.528;2022-12-18T07:44:29;-3.40;99.90
9849;DHT22;4963;51.444;6.528;2022-12-18T07:46:56;-3.40;99.90
9849;DHT22;4963;51.444;6.528;2022-12-18T07:49:23;-3.30;99.90
9849;DHT22;4963;51.444;6.528;2022-12-18T07:51:49;-3.30;99.90
9849;DHT22;4963;51.444;6.528;2022-12-18T07:54:16;-3.30;99.90
9849;DHT22;4963;51.444;6.528;2022-12-18T07:56:44;-3.30;99.90
9849;DHT22;4963;51.444;6.528;2022-12-18T07:59:11;-3.30;99.90
9849;DHT22;4963;51.444;6.528;2022-12-18T08:01:38;-3.30;99.90
9849;DHT22;4963;51.444;6.528;2022-12-18T08:04:04;-3.30;99.90
9849;DHT22;4963;51.444;6.528;2022-12-18T08:06:31;-3.20;99.90
9849;DHT22;4963;51.444;6.528;2022-12-18T08:08:58;-3.20;99.90
9849;DHT22;4963;51.444;6.528;2022-12-18T08:11:26;-3.10;99.90
9849;DHT22;4963;51.444;6.528;2022-12-18T08:13:55;-3.00;99.90
9849;DHT22;4963;51.444;6.528;2022-12-18T08:16:22;-3.00;99.90
9849;DHT22;4963;51.444;6.528;2022-12-18T08:18:51;-2.90;99.90
9849;DHT22;4963;51.444;6.528;2022-12-18T08:21:19;-2.80;99.90
9849;DHT22;4963;51.444;6.528;2022-12-18T08:23:48;-2.80;99.90
9849;DHT22;4963;51.444;6.528;2022-12-18T08:26:15;-2.80;99.90
9849;DHT22;4963;51.444;6.528;2022-12-18T08:28:42;-2.70;99.90
9849;DHT22;4963;51.444;6.528;2022-12-18T08:31:11;-2.70;99.90
9849;DHT22;4963;51.444;6.528;2022-12-18T08:33:40;-2.60;99.90
9849;DHT22;4963;51.444;6.528;2022-12-18T08:36:08;-2.60;99.90
9849;DHT22;4963;51.444;6.528;2022-12-18T08:38:36;-2.50;99.90
9849;DHT22;4963;51.444;6.528;2022-12-18T08:41:04;-2.50;99.90
9849;DHT22;4963;51.444;6.528;2022-12-18T08:43:31;-2.40;99.90
9849;DHT22;4963;51.444;6.528;2022-12-18T08:46:18;-2.40;99.90
9849;DHT22;4963;51.444;6.528;2022-12-18T08:48:45;-2.30;99.90
9849;DHT22;4963;51.444;6.528;2022-12-18T08:51:12;-2.20;99.90
9849;DHT22;4963;51.444;6.528;2022-12-18T08:53:39;-2.20;99.90
9849;DHT22;4963;51.444;6.528;2022-12-18T08:56:06;-2.10;99.90
9849;DHT22;4963;51.444;6.528;2022-12-18T08:58:33;-2.10;99.90
9849;DHT22;4963;51.444;6.528;2022-12-18T09:01:00;-2.00;99.90
9849;DHT22;4963;51.444;6.528;2022-12-18T09:03:29;-2.00;99.90
9849;DHT22;4963;51.444;6.528;2022-12-18T09:05:56;-2.00;99.90
9849;DHT22;4963;51.444;6.528;2022-12-18T09:08:23;-2.00;99.90
9849;DHT22;4963;51.444;6.528;2022-12-18T09:10:50;-1.90;99.90
9849;DHT22;4963;51.444;6.528;2022-12-18T09:13:18;-1.80;99.90
9849;DHT22;4963;51.444;6.528;2022-12-18T09:15:46;-1.80;99.90
9849;DHT22;4963;51.444;6.528;2022-12-18T09:18:14;-1.80;99.90
9849;DHT22;4963;51.444;6.528;2022-12-18T09:20:43;-1.80;99.90
9849;DHT22;4963;51.444;6.528;2022-12-18T09:23:10;-1.70;99.90
9849;DHT22;4963;51.444;6.528;2022-12-18T09:25:38;-1.70;99.90
9849;DHT22;4963;51.444;6.528;2022-12-18T09:28:06;-1.60;99.90
9849;DHT22;4963;51.444;6.528;2022-12-18T09:30:37;-1.60;99.90
9849;DHT22;4963;51.444;6.528;2022-12-18T09:33:04;-1.50;99.90
9849;DHT22;4963;51.444;6.528;2022-12-18T09:35:31;-1.50;99.90
9849;DHT22;4963;51.444;6.528;2022-12-18T09:37:59;-1.50;99.90
9849;DHT22;4963;51.444;6.528;2022-12-18T09:40:36;-1.50;99.90
9849;DHT22;4963;51.444;6.528;2022-12-18T09:43:06;-1.50;99.90
9849;DHT22;4963;51.444;6.528;2022-12-18T09:45:43;-1.40;99.90
9849;DHT22;4963;51.444;6.528;2022-12-18T09:48:17;-1.40;99.90
9849;DHT22;4963;51.444;6.528;2022-12-18T09:50:46;-1.40;99.90
9849;DHT22;4963;51.444;6.528;2022-12-18T09:53:19;-1.40;99.90
9849;DHT22;4963;51.444;6.528;2022-12-18T09:55:48;-1.30;99.90
9849;DHT22;4963;51.444;6.528;2022-12-18T09:58:24;-1.30;99.90
9849;DHT22;4963;51.444;6.528;2022-12-18T10:00:53;-1.30;99.90
9849;DHT22;4963;51.444;6.528;2022-12-18T10:03:21;-1.20;99.90
9849;DHT22;4963;51.444;6.528;2022-12-18T10:05:56;-1.20;99.90
9849;DHT22;4963;51.444;6.528;2022-12-18T10:08:33;-1.10;99.90
9849;DHT22;4963;51.444;6.528;2022-12-18T10:11:21;-1.10;99.90
9849;DHT22;4963;51.444;6.528;2022-12-18T10:13:53;-1.10;99.90
9849;DHT22;4963;51.444;6.528;2022-12-18T10:16:27;-1.00;99.90
9849;DHT22;4963;51.444;6.528;2022-12-18T10:19:09;-1.00;99.90
9849;DHT22;4963;51.444;6.528;2022-12-18T10:21:44;-0.90;99.90
9849;DHT22;4963;51.444;6.528;2022-12-18T10:24:19;-0.90;99.90
9849;DHT22;4963;51.444;6.528;2022-12-18T10:26:48;-0.90;99.90
9849;DHT22;4963;51.444;6.528;2022-12-18T10:29:16;-0.80;99.90
9849;DHT22;4963;51.444;6.528;2022-12-18T10:31:43;-0.80;99.90
9849;DHT22;4963;51.444;6.528;2022-12-18T10:34:10;-0.80;99.90
9849;DHT22;4963;51.444;6.528;2022-12-18T10:36:37;-0.80;99.90
9849;DHT22;4963;51.444;6.528;2022-12-18T10:39:19;-0.70;99.90
9849;DHT22;4963;51.444;6.528;2022-12-18T10:41:47;-0.60;99.90
9849;DHT22;4963;51.444;6.528;2022-12-18T10:44:17;-0.60;99.90
9849;DHT22;4963;51.444;6.528;2022-12-18T10:46:46;-0.60;99.90
9849;DHT22;4963;51.444;6.528;2022-12-18T10:49:22;-0.50;99.90
9849;DHT22;4963;51.444;6.528;2022-12-18T10:51:50;-0.50;99.90
9849;DHT22;4963;51.444;6.528;2022-12-18T10:54:21;-0.50;99.90
9849;DHT22;4963;51.444;6.528;2022-12-18T10:56:49;-0.50;99.90
9849;DHT22;4963;51.444;6.528;2022-12-18T10:59:17;-0.40;99.90
9849;DHT22;4963;51.444;6.528;2022-12-18T11:01:49;-0.40;99.90
9849;DHT22;4963;51.444;6.528;2022-12-18T11:04:20;-0.40;99.90
9849;DHT22;4963;51.444;6.528;2022-12-18T11:06:56;-0.40;99.90
9849;DHT22;4963;51.444;6.528;2022-12-18T11:09:26;-0.30;99.90
9849;DHT22;4963;51.444;6.528;2022-12-18T11:11:55;-0.30;99.90
9849;DHT22;4963;51.444;6.528;2022-12-18T11:14:24;-0.30;99.90
9849;DHT22;4963;51.444;6.528;2022-12-18T11:16:53;-0.30;99.90
9849;DHT22;4963;51.444;6.528;2022-12-18T11:19:26;-0.30;99.90
9849;DHT22;4963;51.444;6.528;2022-12-18T11:21:54;-0.20;99.90
9849;DHT22;4963;51.444;6.528;2022-12-18T11:24:28;-0.20;99.90
9849;DHT22;4963;51.444;6.528;2022-12-18T11:26:56;-0.20;99.90
9849;DHT22;4963;51.444;6.528;2022-12-18T11:29:29;-0.20;99.90
9849;DHT22;4963;51.444;6.528;2022-12-18T11:32:28;-0.10;99.90
9849;DHT22;4963;51.444;6.528;2022-12-18T11:35:01;-0.10;99.90
9849;DHT22;4963;51.444;6.528;2022-12-18T11:37:30;-0.10;99.90
9849;DHT22;4963;51.444;6.528;2022-12-18T11:40:03;-0.10;99.90
9849;DHT22;4963;51.444;6.528;2022-12-18T11:42:37;-0.10;99.90
9849;DHT22;4963;51.444;6.528;2022-12-18T11:45:27;-0.10;99.90
9849;DHT22;4963;51.444;6.528;2022-12-18T11:47:58;0.00;99.90
9849;DHT22;4963;51.444;6.528;2022-12-18T11:50:34;0.00;99.90
9849;DHT22;4963;51.444;6.528;2022-12-18T11:53:10;0.00;99.90
9849;DHT22;4963;51.444;6.528;2022-12-18T11:55:43;0.00;99.90
9849;DHT22;4963;51.444;6.528;2022-12-18T11:58:21;0.00;99.90
9849;DHT22;4963;51.444;6.528;2022-12-18T12:00:56;0.00;99.90
9849;DHT22;4963;51.444;6.528;2022-12-18T12:03:52;0.00;99.90
9849;DHT22;4963;51.444;6.528;2022-12-18T12:06:23;0.10;99.90
9849;DHT22;4963;51.444;6.528;2022-12-18T12:09:00;0.10;99.90
9849;DHT22;4963;51.444;6.528;2022-12-18T12:11:38;0.00;99.90
9849;DHT22;4963;51.444;6.528;2022-12-18T12:14:24;0.10;99.90
9849;DHT22;4963;51.444;6.528;2022-12-18T12:16:58;0.10;99.90
9849;DHT22;4963;51.444;6.528;2022-12-18T12:19:36;0.10;99.90
9849;DHT22;4963;51.444;6.528;2022-12-18T12:22:10;0.10;99.90
9849;DHT22;4963;51.444;6.528;2022-12-18T12:24:49;0.10;99.90
9849;DHT22;4963;51.444;6.528;2022-12-18T12:27:25;0.10;99.90
9849;DHT22;4963;51.444;6.528;2022-12-18T12:30:00;0.10;99.90
9849;DHT22;4963;51.444;6.528;2022-12-18T12:32:45;0.10;99.90
9849;DHT22;4963;51.444;6.528;2022-12-18T12:35:26;0.10;99.90
9849;DHT22;4963;51.444;6.528;2022-12-18T12:38:03;0.10;99.90
9849;DHT22;4963;51.444;6.528;2022-12-18T12:40:34;0.10;99.90
9849;DHT22;4963;51.444;6.528;2022-12-18T12:43:08;0.10;99.90
9849;DHT22;4963;51.444;6.528;2022-12-18T12:45:43;0.10;99.90
9849;DHT22;4963;51.444;6.528;2022-12-18T12:48:16;0.10;99.90
9849;DHT22;4963;51.444;6.528;2022-12-18T12:50:45;0.10;99.90
9849;DHT22;4963;51.444;6.528;2022-12-18T12:53:23;0.10;99.90
9849;DHT22;4963;51.444;6.528;2022-12-18T12:55:53;0.10;99.90
9849;DHT22;4963;51.444;6.528;2022-12-18T12:58:28;0.10;99.90
9849;DHT22;4963;51.444;6.528;2022-12-18T13:01:05;0.10;99.90
9849;DHT22;4963;51.444;6.528;2022-12-18T13:03:41;0.10;99.90
9849;DHT22;4963;51.444;6.528;2022-12-18T13:06:14;0.10;99.90
9849;DHT22;4963;51.444;6.528;2022-12-18T13:08:54;0.10;99.90
9849;DHT22;4963;51.444;6.528;2022-12-18T13:11:35;0.10;99.90
9849;DHT22;4963;51.444;6.528;2022-12-18T13:14:23;0.10;99.90
9849;DHT22;4963;51.444;6.528;2022-12-18T13:16:50;0.10;99.90
9849;DHT22;4963;51.444;6.528;2022-12-18T13:19:26;0.20;99.90
9849;DHT22;4963;51.444;6.528;2022-12-18T13:21:54;0.20;99.90
9849;DHT22;4963;51.444;6.528;2022-12-18T13:24:25;0.20;99.90
9849;DHT22;4963;51.444;6.528;2022-12-18T13:26:52;0.10;99.90
9849;DHT22;4963;51.444;6.528;2022-12-18T13:29:42;0.10;99.90
9849;DHT22;4963;51.444;6.528;2022-12-18T13:32:23;0.20;99.90
9849;DHT22;4963;51.444;6.528;2022-12-18T13:37:59;0.20;99.90
9849;DHT22;4963;51.444;6.528;2022-12-18T13:40:55;0.20;99.90
9849;DHT22;4963;51.444;6.528;2022-12-18T13:43:35;0.10;99.90
9849;DHT22;4963;51.444;6.528;2022-12-18T13:46:21;0.10;99.90
9849;DHT22;4963;51.444;6.528;2022-12-18T13:48:55;0.10;99.90
9849;DHT22;4963;51.444;6.528;2022-12-18T13:51:23;0.00;99.90
9849;DHT22;4963;51.444;6.528;2022-12-18T13:53:52;0.00;99.90
9849;DHT22;4963;51.444;6.528;2022-12-18T13:56:24;0.00;99.90
9849;DHT22;4963;51.444;6.528;2022-12-18T13:59:08;0.00;99.90
9849;DHT22;4963;51.444;6.528;2022-12-18T14:01:42;0.00;99.90
9849;DHT22;4963;51.444;6.528;2022-12-18T14:04:10;0.00;99.90
9849;DHT22;4963;51.444;6.528;2022-12-18T14:06:37;-0.10;99.90
9849;DHT22;4963;51.444;6.528;2022-12-18T14:09:04;-0.10;99.90
9849;DHT22;4963;51.444;6.528;2022-12-18T14:11:30;0.00;99.90
9849;DHT22;4963;51.444;6.528;2022-12-18T14:13:58;0.00;99.90
9849;DHT22;4963;51.444;6.528;2022-12-18T14:16:25;0.00;99.90
9849;DHT22;4963;51.444;6.528;2022-12-18T14:18:55;0.00;99.90
9849;DHT22;4963;51.444;6.528;2022-12-18T14:21:25;0.00;99.90
9849;DHT22;4963;51.444;6.528;2022-12-18T14:24:11;0.00;99.90
9849;DHT22;4963;51.444;6.528;2022-12-18T14:26:38;-0.10;99.90
9849;DHT22;4963;51.444;6.528;2022-12-18T14:29:20;-0.10;99.90
9849;DHT22;4963;51.444;6.528;2022-12-18T14:32:09;-0.10;99.90
9849;DHT22;4963;51.444;6.528;2022-12-18T14:34:38;-0.10;99.90
9849;DHT22;4963;51.444;6.528;2022-12-18T14:37:08;0.60;99.90
9849;DHT22;4963;51.444;6.528;2022-12-18T14:39:36;-0.10;99.90
9849;DHT22;4963;51.444;6.528;2022-12-18T14:42:02;-0.10;99.90
9849;DHT22;4963;51.444;6.528;2022-12-18T14:44:29;-0.20;99.90
9849;DHT22;4963;51.444;6.528;2022-12-18T14:46:56;-0.20;99.90
9849;DHT22;4963;51.444;6.528;2022-12-18T14:49:26;-0.20;99.90
9849;DHT22;4963;51.444;6.528;2022-12-18T14:51:56;-0.20;99.90
9849;DHT22;4963;51.444;6.528;2022-12-18T14:54:24;-0.20;99.90
9849;DHT22;4963;51.444;6.528;2022-12-18T14:56:56;-0.30;99.90
9849;DHT22;4963;51.444;6.528;2022-12-18T14:59:26;-0.30;99.90
9849;DHT22;4963;51.444;6.528;2022-12-18T15:01:58;-0.30;99.90
9849;DHT22;4963;51.444;6.528;2022-12-18T15:04:28;-0.20;99.90
9849;DHT22;4963;51.444;6.528;2022-12-18T15:07:13;-0.20;99.90
9849;DHT22;4963;51.444;6.528;2022-12-18T15:09:42;-0.20;99.90
9849;DHT22;4963;51.444;6.528;2022-12-18T15:12:33;-0.20;99.90
9849;DHT22;4963;51.444;6.528;2022-12-18T15:15:01;-0.20;99.90
9849;DHT22;4963;51.444;6.528;2022-12-18T15:17:28;-0.30;99.90
9849;DHT22;4963;51.444;6.528;2022-12-18T15:20:00;-0.30;99.90
9849;DHT22;4963;51.444;6.528;2022-12-18T15:22:30;-0.30;99.90
9849;DHT22;4963;51.444;6.528;2022-12-18T15:24:58;-0.30;99.90
9849;DHT22;4963;51.444;6.528;2022-12-18T15:27:30;-0.30;99.90
9849;DHT22;4963;51.444;6.528;2022-12-18T15:30:19;-0.30;99.90
9849;DHT22;4963;51.444;6.528;2022-12-18T15:32:47;-0.30;99.90
9849;DHT22;4963;51.444;6.528;2022-12-18T15:35:17;-0.30;99.90
9849;DHT22;4963;51.444;6.528;2022-12-18T15:37:46;-0.30;99.90
9849;DHT22;4963;51.444;6.528;2022-12-18T15:40:15;-0.30;99.90
9849;DHT22;4963;51.444;6.528;2022-12-18T15:42:42;-0.40;99.90
9849;DHT22;4963;51.444;6.528;2022-12-18T15:45:27;-0.40;99.90
9849;DHT22;4963;51.444;6.528;2022-12-18T15:47:54;-0.40;99.90
9849;DHT22;4963;51.444;6.528;2022-12-18T15:50:21;-0.40;99.90
9849;DHT22;4963;51.444;6.528;2022-12-18T15:52:52;-0.40;99.90
9849;DHT22;4963;51.444;6.528;2022-12-18T15:55:20;-0.40;99.90
9849;DHT22;4963;51.444;6.528;2022-12-18T15:58:10;-0.40;99.90
9849;DHT22;4963;51.444;6.528;2022-12-18T16:00:39;-0.40;99.90
9849;DHT22;4963;51.444;6.528;2022-12-18T16:03:06;-0.50;99.90
9849;DHT22;4963;51.444;6.528;2022-12-18T16:05:33;-0.40;99.90
9849;DHT22;4963;51.444;6.528;2022-12-18T16:08:01;-0.40;99.90
9849;DHT22;4963;51.444;6.528;2022-12-18T16:10:28;-0.40;99.90
9849;DHT22;4963;51.444;6.528;2022-12-18T16:12:55;-0.40;99.90
9849;DHT22;4963;51.444;6.528;2022-12-18T16:15:22;-0.40;99.90
9849;DHT22;4963;51.444;6.528;2022-12-18T16:17:48;-0.50;99.90
9849;DHT22;4963;51.444;6.528;2022-12-18T16:20:18;-0.50;99.90
9849;DHT22;4963;51.444;6.528;2022-12-18T16:22:46;-0.50;99.90
9849;DHT22;4963;51.444;6.528;2022-12-18T16:25:22;-0.50;99.90
9849;DHT22;4963;51.444;6.528;2022-12-18T16:27:50;-0.50;99.90
9849;DHT22;4963;51.444;6.528;2022-12-18T16:30:20;-0.50;99.90